createdAt,value
2023-04-12T00:00:19.888Z,101008.75
2023-04-12T00:02:47.273Z,101003.16
2023-04-12T00:05:14.546Z,101006.72
2023-04-12T00:07:43.103Z,100996.88
2023-04-12T00:10:10.460Z,100998.91
2023-04-12T00:12:37.347Z,101004.91
2023-04-12T00:15:05.677Z,100992.66
2023-04-12T00:17:34.269Z,100984.75
2023-04-12T00:20:02.418Z,100987.03
2023-04-12T00:22:30.168Z,100975.50
2023-04-12T00:24:57.111Z,100970.69
2023-04-12T00:27:24.190Z,100969.16
2023-04-12T00:29:51.085Z,100975.41
2023-04-12T00:32:17.913Z,100970.28
2023-04-12T00:34:44.692Z,100962.25
2023-04-12T00:37:11.760Z,100963.56
2023-04-12T00:39:38.831Z,100963.72
2023-04-12T00:42:06.308Z,100951.97
2023-04-12T00:44:34.424Z,100960.16
2023-04-12T00:47:03.992Z,100953.78
2023-04-12T00:49:31.572Z,100942.56
2023-04-12T00:52:03.516Z,100946.00
2023-04-12T00:54:40.066Z,100938.06
2023-04-12T00:57:07.405Z,100934.31
2023-04-12T00:59:34.695Z,100928.63
2023-04-12T01:02:02.246Z,100919.06
2023-04-12T01:04:29.437Z,100913.84
2023-04-12T01:07:15.894Z,100918.09
2023-04-12T01:10:05.493Z,100904.34
2023-04-12T01:12:47.350Z,100903.56
2023-04-12T01:15:16.879Z,100904.16
2023-04-12T01:18:08.761Z,100894.81
2023-04-12T01:20:45.118Z,100897.84
2023-04-12T01:23:43.120Z,100896.75
2023-04-12T01:26:33.534Z,100891.25
2023-04-12T01:29:04.243Z,100874.75
2023-04-12T01:31:33.403Z,100871.72
2023-04-12T01:34:03.325Z,100884.13
2023-04-12T01:36:31.218Z,100874.25
2023-04-12T01:38:58.535Z,100878.91
2023-04-12T01:41:25.856Z,100870.94
2023-04-12T01:43:52.784Z,100867.91
2023-04-12T01:46:23.438Z,100860.75
2023-04-12T01:48:52.315Z,100849.50
2023-04-12T01:51:38.111Z,100842.91
2023-04-12T01:54:12.770Z,100843.72
2023-04-12T01:56:46.265Z,100843.72
2023-04-12T01:59:16.403Z,100841.53
2023-04-12T02:01:45.463Z,100835.78
2023-04-12T02:04:13.003Z,100830.03
2023-04-12T02:06:41.734Z,100821.72
2023-04-12T02:09:08.861Z,100800.00
2023-04-12T02:11:36.020Z,100815.13
2023-04-12T02:14:03.034Z,100808.25
2023-04-12T02:16:30.228Z,100805.78
2023-04-12T02:18:57.698Z,100809.38
2023-04-12T02:21:25.228Z,100798.13
2023-04-12T02:23:52.628Z,100791.50
2023-04-12T02:26:19.587Z,100784.91
2023-04-12T02:28:46.550Z,100773.63
2023-04-12T02:31:13.497Z,100779.69
2023-04-12T02:33:41.456Z,100772.25
2023-04-12T02:36:10.566Z,100758.22
2023-04-12T02:38:37.331Z,100762.63
2023-04-12T02:41:04.284Z,100747.75
2023-04-12T02:43:32.457Z,100732.34
2023-04-12T02:45:59.652Z,100720.22
2023-04-12T02:48:27.640Z,100717.47
2023-04-12T02:50:54.427Z,100685.84
2023-04-12T02:53:22.006Z,100706.47
2023-04-12T02:55:48.911Z,100703.44
2023-04-12T02:58:16.803Z,100693.50
2023-04-12T03:00:44.155Z,100694.88
2023-04-12T03:03:11.364Z,100691.28
2023-04-12T03:05:38.351Z,100683.03
2023-04-12T03:08:05.563Z,100675.84
2023-04-12T03:10:32.384Z,100673.59
2023-04-12T03:12:59.284Z,100663.69
2023-04-12T03:15:28.419Z,100659.25
2023-04-12T03:17:55.679Z,100658.38
2023-04-12T03:20:25.416Z,100657.31
2023-04-12T03:22:52.283Z,100657.88
2023-04-12T03:25:19.064Z,100656.78
2023-04-12T03:27:50.908Z,100644.41
2023-04-12T03:30:17.980Z,100639.16
2023-04-12T03:32:45.013Z,100619.88
2023-04-12T03:35:12.159Z,100638.34
2023-04-12T03:37:42.899Z,100628.66
2023-04-12T03:40:12.790Z,100630.28
2023-04-12T03:42:39.646Z,100613.75
2023-04-12T03:45:07.197Z,100616.47
2023-04-12T03:47:34.287Z,100599.94
2023-04-12T03:50:12.059Z,100595.81
2023-04-12T03:52:39.447Z,100591.66
2023-04-12T03:55:08.172Z,100586.59
2023-04-12T03:57:35.689Z,100575.63
2023-04-12T04:00:03.023Z,100563.28
2023-04-12T04:02:32.233Z,100563.81
2023-04-12T04:04:59.608Z,100539.31
2023-04-12T04:07:26.635Z,100534.84
2023-04-12T04:09:55.173Z,100541.97
2023-04-12T04:12:22.102Z,100540.13
2023-04-12T04:14:49.049Z,100531.53
2023-04-12T04:17:16.302Z,100523.56
2023-04-12T04:19:43.383Z,100529.91
2023-04-12T04:22:10.419Z,100510.66
2023-04-12T04:24:39.263Z,100512.25
2023-04-12T04:27:06.716Z,100507.84
2023-04-12T04:29:34.058Z,100510.59
2023-04-12T04:32:01.732Z,100513.91
2023-04-12T04:34:28.848Z,100515.53
2023-04-12T04:36:56.096Z,100501.78
2023-04-12T04:39:23.201Z,100493.25
2023-04-12T04:41:55.148Z,100484.69
2023-04-12T04:44:22.513Z,100475.53
2023-04-12T04:46:49.535Z,100473.59
2023-04-12T04:49:16.737Z,100480.50
2023-04-12T04:51:43.789Z,100468.06
2023-04-12T04:54:10.838Z,100467.84
2023-04-12T04:56:37.708Z,100466.19
2023-04-12T04:59:04.505Z,100469.41
2023-04-12T05:01:32.275Z,100465.13
2023-04-12T05:03:59.527Z,100472.22
2023-04-12T05:06:27.593Z,100456.13
2023-04-12T05:08:54.741Z,100468.34
2023-04-12T05:11:21.890Z,100461.25
2023-04-12T05:13:50.507Z,100451.94
2023-04-12T05:16:17.437Z,100413.16
2023-04-12T05:18:44.583Z,100445.53
2023-04-12T05:21:11.425Z,100444.69
2023-04-12T05:23:43.490Z,100439.88
2023-04-12T05:26:10.843Z,100433.94
2023-04-12T05:28:37.787Z,100433.75
2023-04-12T05:31:06.395Z,100434.25
2023-04-12T05:33:34.822Z,100432.41
2023-04-12T05:36:05.264Z,100420.19
2023-04-12T05:38:32.346Z,100409.47
2023-04-12T05:40:59.268Z,100416.19
2023-04-12T05:43:26.250Z,100415.38
2023-04-12T05:45:53.306Z,100408.19
2023-04-12T05:48:20.808Z,100406.59
2023-04-12T05:50:54.925Z,100393.81
2023-04-12T05:53:22.537Z,100377.06
2023-04-12T05:55:49.361Z,100384.00
2023-04-12T05:58:16.280Z,100355.03
2023-04-12T06:00:45.468Z,100381.00
2023-04-12T06:03:12.702Z,100390.66
2023-04-12T06:05:39.730Z,100381.25
2023-04-12T06:08:07.281Z,100372.16
2023-04-12T06:10:34.720Z,100369.25
2023-04-12T06:13:01.675Z,100371.19
2023-04-12T06:15:29.307Z,100374.06
2023-04-12T06:17:56.319Z,100358.84
2023-04-12T06:20:23.165Z,100352.50
2023-04-12T06:22:49.978Z,100339.34
2023-04-12T06:25:16.936Z,100342.78
2023-04-12T06:27:44.157Z,100338.53
2023-04-12T06:30:11.507Z,100326.09
2023-04-12T06:32:39.012Z,100320.06
2023-04-12T06:35:06.588Z,100333.84
2023-04-12T06:37:33.525Z,100302.81
2023-04-12T06:40:00.604Z,100316.06
2023-04-12T06:42:27.530Z,100315.88
2023-04-12T06:44:54.533Z,100333.09
2023-04-12T06:47:23.002Z,100323.06
2023-04-12T06:49:54.123Z,100320.72
2023-04-12T06:52:25.727Z,100329.94
2023-04-12T06:54:53.439Z,100326.69
2023-04-12T06:57:20.487Z,100326.78
2023-04-12T06:59:47.350Z,100296.47
2023-04-12T07:02:14.340Z,100322.66
2023-04-12T07:04:41.278Z,100329.69
2023-04-12T07:07:08.205Z,100303.19
2023-04-12T07:09:35.053Z,100285.97
2023-04-12T07:12:02.698Z,100308.53
2023-04-12T07:14:30.554Z,100296.13
2023-04-12T07:16:57.476Z,100304.28
2023-04-12T07:19:24.362Z,100297.63
2023-04-12T07:21:51.335Z,100289.16
2023-04-12T07:24:18.220Z,100288.59
2023-04-12T07:26:45.133Z,100284.50
2023-04-12T07:29:11.858Z,100266.84
2023-04-12T07:31:38.687Z,100283.69
2023-04-12T07:34:05.964Z,100277.38
2023-04-12T07:36:33.078Z,100274.59
2023-04-12T07:39:00.205Z,100275.81
2023-04-12T07:41:27.375Z,100258.34
2023-04-12T07:43:54.424Z,100264.38
2023-04-12T07:46:21.511Z,100230.25
2023-04-12T07:48:48.701Z,100256.16
2023-04-12T07:51:15.536Z,100249.44
2023-04-12T07:53:42.771Z,100239.25
2023-04-12T07:56:09.821Z,100244.50
2023-04-12T07:58:36.809Z,100243.06
2023-04-12T08:01:03.760Z,100244.69
2023-04-12T08:03:31.113Z,100229.50
2023-04-12T08:05:58.285Z,100224.09
2023-04-12T08:08:25.229Z,100201.88
2023-04-12T08:10:52.823Z,100218.53
2023-04-12T08:13:19.888Z,100213.78
2023-04-12T08:15:49.920Z,100202.03
2023-04-12T08:18:16.940Z,100201.69
2023-04-12T08:20:44.434Z,100189.25
2023-04-12T08:23:14.891Z,100176.78
2023-04-12T08:25:41.974Z,100192.34
2023-04-12T08:28:08.964Z,100175.66
2023-04-12T08:30:36.995Z,100175.91
2023-04-12T08:33:04.203Z,100184.19
2023-04-12T08:35:34.160Z,100163.09
2023-04-12T08:38:07.032Z,100163.72
2023-04-12T08:40:34.237Z,100162.06
2023-04-12T08:43:08.273Z,100142.25
2023-04-12T08:45:36.506Z,100130.69
2023-04-12T08:48:06.445Z,100141.41
2023-04-12T08:50:33.660Z,100133.94
2023-04-12T08:53:00.857Z,100130.78
2023-04-12T08:55:27.868Z,100120.66
2023-04-12T08:57:56.940Z,100122.78
2023-04-12T09:00:24.703Z,100119.31
2023-04-12T09:02:51.889Z,100122.56
2023-04-12T09:05:19.310Z,100100.50
2023-04-12T09:07:46.276Z,100100.97
2023-04-12T09:10:31.336Z,100098.72
2023-04-12T09:12:58.935Z,100095.19
2023-04-12T09:15:25.965Z,100090.00
2023-04-12T09:18:11.778Z,100079.91
2023-04-12T09:20:39.926Z,100076.59
2023-04-12T09:23:26.850Z,100072.34
2023-04-12T09:25:53.917Z,100060.94
2023-04-12T09:28:27.210Z,100049.41
2023-04-12T09:30:55.689Z,100049.72
2023-04-12T09:33:32.545Z,100051.47
2023-04-12T09:36:07.716Z,100047.69
2023-04-12T09:38:37.207Z,100023.50
2023-04-12T09:41:26.972Z,100028.31
2023-04-12T09:43:54.629Z,100040.44
2023-04-12T09:46:23.404Z,100041.00
2023-04-12T09:48:55.523Z,100035.63
2023-04-12T09:51:30.239Z,100036.09
2023-04-12T09:54:04.631Z,100038.00
2023-04-12T09:56:33.723Z,100029.75
2023-04-12T09:59:05.454Z,100019.66
2023-04-12T10:01:38.822Z,100020.22
2023-04-12T10:04:08.728Z,100019.94
2023-04-12T10:06:37.517Z,100009.44
2023-04-12T10:09:05.782Z,100016.31
2023-04-12T10:11:34.551Z,100023.19
2023-04-12T10:14:06.314Z,99993.03
2023-04-12T10:16:37.046Z,100011.31
2023-04-12T10:19:04.484Z,100005.88
2023-04-12T10:21:32.150Z,100000.16
2023-04-12T10:23:59.810Z,100004.56
2023-04-12T10:26:27.406Z,100005.47
2023-04-12T10:29:25.768Z,100015.31
2023-04-12T10:31:54.353Z,100013.53
2023-04-12T10:34:28.996Z,100014.03
2023-04-12T10:36:57.873Z,100014.38
2023-04-12T10:39:44.698Z,100014.63
2023-04-12T10:42:27.269Z,100014.84
2023-04-12T10:45:32.385Z,100016.94
2023-04-12T10:48:01.628Z,100027.59
2023-04-12T10:50:35.327Z,100018.94
2023-04-12T10:53:17.395Z,100019.44
2023-04-12T10:55:45.785Z,100017.34
2023-04-12T10:58:47.782Z,100018.34
2023-04-12T11:01:18.673Z,100010.81
2023-04-12T11:04:18.297Z,100009.88
2023-04-12T11:06:56.801Z,100016.72
2023-04-12T11:09:39.156Z,100019.97
2023-04-12T11:12:11.021Z,100018.31
2023-04-12T11:14:43.978Z,100022.41
2023-04-12T11:17:13.728Z,100026.31
2023-04-12T11:19:43.039Z,100010.66
2023-04-12T11:22:12.113Z,100020.28
2023-04-12T11:24:48.263Z,100020.59
2023-04-12T11:27:18.823Z,100019.13
2023-04-12T11:29:48.587Z,100011.81
2023-04-12T11:32:16.416Z,100008.72
2023-04-12T11:34:46.394Z,100017.03
2023-04-12T11:37:13.942Z,99997.13
2023-04-12T11:39:43.514Z,100012.59
2023-04-12T11:42:17.967Z,100007.91
2023-04-12T11:47:18.003Z,100006.44
2023-04-12T11:49:49.947Z,99995.16
2023-04-12T11:52:18.640Z,100000.41
2023-04-12T11:54:56.903Z,99993.72
2023-04-12T11:57:24.260Z,99982.28
2023-04-12T11:59:51.414Z,99986.53
2023-04-12T12:02:23.477Z,99979.66
2023-04-12T12:04:52.063Z,99982.44
2023-04-12T12:07:21.834Z,99971.00
2023-04-12T12:09:50.275Z,99971.66
2023-04-12T12:12:18.868Z,99967.59
2023-04-12T12:14:47.828Z,99962.22
2023-04-12T12:17:16.368Z,99954.91
2023-04-12T12:19:46.658Z,99937.44
2023-04-12T12:22:18.848Z,99960.09
2023-04-12T12:24:55.326Z,99956.50
2023-04-12T12:27:23.922Z,99971.03
2023-04-12T12:29:53.702Z,99949.47
2023-04-12T12:32:22.535Z,99950.78
2023-04-12T12:34:57.292Z,99937.69
2023-04-12T12:37:26.261Z,99939.59
2023-04-12T12:40:14.157Z,99940.66
2023-04-12T12:42:52.591Z,99900.00
2023-04-12T12:45:21.236Z,99916.84
2023-04-12T12:47:53.672Z,99911.25
2023-04-12T12:50:27.265Z,99913.06
2023-04-12T12:52:55.717Z,99915.31
2023-04-12T12:55:23.703Z,99904.59
2023-04-12T12:58:07.464Z,99902.41
2023-04-12T13:00:36.742Z,99907.09
2023-04-12T13:03:04.261Z,99896.53
2023-04-12T13:05:32.299Z,99885.81
2023-04-12T13:07:59.082Z,99852.31
2023-04-12T13:10:27.410Z,99871.06
2023-04-12T13:12:54.259Z,99890.59
2023-04-12T13:15:23.561Z,99887.44
2023-04-12T13:17:54.003Z,99879.13
2023-04-12T13:20:21.934Z,99888.88
2023-04-12T13:22:49.375Z,99886.63
2023-04-12T13:25:16.374Z,99880.88
2023-04-12T13:27:43.334Z,99877.31
2023-04-12T13:30:10.657Z,99867.09
2023-04-12T13:32:38.593Z,99858.63
2023-04-12T13:35:05.888Z,99872.84
2023-04-12T13:37:34.130Z,99864.03
2023-04-12T13:40:01.083Z,99869.28
2023-04-12T13:42:28.134Z,99859.94
2023-04-12T13:44:55.122Z,99863.97
2023-04-12T13:47:22.768Z,99854.97
2023-04-12T13:49:49.776Z,99859.31
2023-04-12T13:52:16.524Z,99849.38
2023-04-12T13:54:43.564Z,99851.09
2023-04-12T13:57:10.665Z,99856.78
2023-04-12T13:59:37.526Z,99850.41
2023-04-12T14:02:04.750Z,99843.78
2023-04-12T14:04:32.214Z,99853.53
2023-04-12T14:06:59.618Z,99853.84
2023-04-12T14:09:28.985Z,99842.03
2023-04-12T14:11:58.067Z,99844.59
2023-04-12T14:14:26.491Z,99845.06
2023-04-12T14:16:57.374Z,99834.13
2023-04-12T14:19:25.301Z,99833.75
2023-04-12T14:21:52.631Z,99836.75
2023-04-12T14:24:20.805Z,99825.09
2023-04-12T14:26:50.611Z,99823.84
2023-04-12T14:29:17.629Z,99822.03
2023-04-12T14:31:44.570Z,99825.53
2023-04-12T14:34:11.951Z,99825.72
2023-04-12T14:36:38.913Z,99812.69
2023-04-12T14:39:09.266Z,99817.13
2023-04-12T14:41:37.727Z,99797.09
2023-04-12T14:44:05.316Z,99807.78
2023-04-12T14:46:32.792Z,99795.63
2023-04-12T14:49:01.771Z,99800.63
2023-04-12T14:51:29.811Z,99798.16
2023-04-12T14:53:57.425Z,99793.19
2023-04-12T14:56:28.663Z,99788.13
2023-04-12T14:58:56.921Z,99780.97
2023-04-12T15:01:26.295Z,99791.78
2023-04-12T15:03:53.937Z,99783.78
2023-04-12T15:06:26.353Z,99789.59
2023-04-12T15:08:57.563Z,99786.47
2023-04-12T15:11:27.438Z,99791.97
2023-04-12T15:13:55.313Z,99790.84
2023-04-12T15:16:23.000Z,99749.28
2023-04-12T15:18:51.947Z,99796.75
2023-04-12T15:21:19.693Z,99776.25
2023-04-12T15:23:47.539Z,99783.78
2023-04-12T15:26:14.639Z,99773.47
2023-04-12T15:28:42.839Z,99772.00
2023-04-12T15:31:12.301Z,99769.22
2023-04-12T15:33:39.205Z,99770.34
2023-04-12T15:36:06.554Z,99771.09
2023-04-12T15:38:41.756Z,99767.28
2023-04-12T15:41:09.347Z,99761.59
2023-04-12T15:43:36.513Z,99764.97
2023-04-12T15:46:04.274Z,99766.59
2023-04-12T15:48:31.296Z,99758.94
2023-04-12T15:50:58.393Z,99765.97
2023-04-12T15:53:27.683Z,99766.09
2023-04-12T15:55:55.753Z,99758.56
2023-04-12T15:58:24.134Z,99753.41
2023-04-12T16:00:53.716Z,99752.44
2023-04-12T16:03:23.411Z,99757.75
2023-04-12T16:05:54.448Z,99756.91
2023-04-12T16:08:22.505Z,99764.03
2023-04-12T16:10:50.964Z,99745.47
2023-04-12T16:13:18.800Z,99750.56
2023-04-12T16:15:46.416Z,99752.03
2023-04-12T16:18:14.433Z,99749.78
2023-04-12T16:20:41.345Z,99754.59
2023-04-12T16:23:08.709Z,99754.53
2023-04-12T16:25:36.104Z,99752.75
2023-04-12T16:28:03.313Z,99752.47
2023-04-12T16:30:32.671Z,99752.47
2023-04-12T16:32:59.866Z,99760.16
2023-04-12T16:35:26.944Z,99756.81
2023-04-12T16:37:55.125Z,99760.97
2023-04-12T16:40:22.525Z,99752.13
2023-04-12T16:42:49.479Z,99744.38
2023-04-12T16:45:16.562Z,99733.19
2023-04-12T16:47:46.305Z,99749.44
2023-04-12T16:50:14.537Z,99747.53
2023-04-12T16:52:42.080Z,99725.72
2023-04-12T16:55:12.389Z,99743.41
2023-04-12T16:57:41.000Z,99741.38
2023-04-12T17:00:30.057Z,99735.63
2023-04-12T17:02:57.181Z,99738.94
2023-04-12T17:05:24.897Z,99732.56
2023-04-12T17:07:54.231Z,99735.69
2023-04-12T17:10:23.677Z,99726.56
2023-04-12T17:12:55.383Z,99731.97
2023-04-12T17:15:22.856Z,99723.72
2023-04-12T17:17:54.352Z,99704.09
2023-04-12T17:20:23.362Z,99698.50
2023-04-12T17:22:51.178Z,99705.78
2023-04-12T17:25:20.516Z,99709.56
2023-04-12T17:27:48.348Z,99707.38
2023-04-12T17:30:17.938Z,99706.91
2023-04-12T17:32:48.474Z,99711.38
2023-04-12T17:35:18.032Z,99704.06
2023-04-12T17:37:45.901Z,99707.06
2023-04-12T17:40:14.176Z,99714.63
2023-04-12T17:42:43.814Z,99710.34
2023-04-12T17:45:12.932Z,99700.13
2023-04-12T17:47:42.999Z,99699.59
2023-04-12T17:50:11.764Z,99698.38
2023-04-12T17:52:39.189Z,99696.84
2023-04-12T17:55:09.411Z,99686.56
2023-04-12T17:57:36.734Z,99709.19
2023-04-12T18:00:06.247Z,99707.06
2023-04-12T18:02:33.520Z,99687.63
2023-04-12T18:05:00.502Z,99711.72
2023-04-12T18:07:28.572Z,99704.09
2023-04-12T18:09:56.341Z,99709.84
2023-04-12T18:12:23.433Z,99712.16
2023-04-12T18:14:50.356Z,99712.13
2023-04-12T18:17:17.133Z,99717.28
2023-04-12T18:19:43.997Z,99728.72
2023-04-12T18:22:11.165Z,99733.94
2023-04-12T18:24:38.653Z,99730.03
2023-04-12T18:27:07.299Z,99714.16
2023-04-12T18:29:34.601Z,99731.19
2023-04-12T18:32:01.640Z,99734.50
2023-04-12T18:34:28.584Z,99738.88
2023-04-12T18:36:55.596Z,99740.31
2023-04-12T18:39:22.473Z,99731.91
2023-04-12T18:41:49.615Z,99744.25
2023-04-12T18:44:19.414Z,99753.59
2023-04-12T18:46:46.669Z,99749.31
2023-04-12T18:49:14.618Z,99753.47
2023-04-12T18:51:43.020Z,99775.84
2023-04-12T18:54:13.385Z,99771.06
2023-04-12T18:56:42.559Z,99766.13
2023-04-12T18:59:12.077Z,99758.22
2023-04-12T19:01:39.062Z,99772.69
2023-04-12T19:04:06.154Z,99775.47
2023-04-12T19:06:33.471Z,99781.19
2023-04-12T19:09:00.766Z,99778.81
2023-04-12T19:11:28.103Z,99784.56
2023-04-12T19:13:56.634Z,99793.38
2023-04-12T19:16:24.848Z,99791.88
2023-04-12T19:18:51.996Z,99807.66
2023-04-12T19:21:18.959Z,99813.78
2023-04-12T19:23:46.125Z,99826.53
2023-04-12T19:26:13.102Z,99829.16
2023-04-12T19:28:40.291Z,99846.47
2023-04-12T19:31:10.593Z,99851.69
2023-04-12T19:33:41.697Z,99848.25
2023-04-12T19:36:08.881Z,99829.81
2023-04-12T19:38:36.047Z,99831.78
2023-04-12T19:41:03.014Z,99849.22
2023-04-12T19:43:30.113Z,99838.78
2023-04-12T19:45:57.874Z,99857.53
2023-04-12T19:48:25.062Z,99861.13
2023-04-12T19:50:52.371Z,99852.31
2023-04-12T19:53:21.675Z,99845.66
2023-04-12T19:55:48.704Z,99825.75
2023-04-12T19:58:15.891Z,99834.56
2023-04-12T20:00:42.798Z,99840.25
2023-04-12T20:03:09.715Z,99829.00
2023-04-12T20:05:36.899Z,99849.38
2023-04-12T20:08:03.999Z,99852.00
2023-04-12T20:10:30.991Z,99849.72
2023-04-12T20:12:57.993Z,99830.63
2023-04-12T20:15:25.659Z,99825.44
2023-04-12T20:17:53.457Z,99819.22
2023-04-12T20:20:20.829Z,99819.91
2023-04-12T20:22:48.122Z,99821.66
2023-04-12T20:25:16.688Z,99811.72
2023-04-12T20:27:44.936Z,99810.22
2023-04-12T20:30:17.175Z,99799.16
2023-04-12T20:32:44.179Z,99796.41
2023-04-12T20:35:13.473Z,99811.84
2023-04-12T20:37:40.750Z,99825.41
2023-04-12T20:40:09.508Z,99815.28
2023-04-12T20:42:36.690Z,99811.00
2023-04-12T20:45:03.943Z,99807.00
2023-04-12T20:47:30.919Z,99795.63
2023-04-12T20:49:57.970Z,99798.84
2023-04-12T20:52:25.516Z,99799.63
2023-04-12T20:54:53.775Z,99802.41
2023-04-12T20:57:20.671Z,99816.19
2023-04-12T20:59:47.723Z,99816.91
2023-04-12T21:02:18.425Z,99816.75
2023-04-12T21:04:46.076Z,99836.69
2023-04-12T21:07:13.233Z,99836.00
2023-04-12T21:09:40.388Z,99844.47
2023-04-12T21:12:09.804Z,99846.69
2023-04-12T21:14:37.918Z,99820.72
2023-04-12T21:17:07.384Z,99856.38
2023-04-12T21:19:41.960Z,99865.00
2023-04-12T21:22:08.934Z,99837.03
2023-04-12T21:24:38.436Z,99864.22
2023-04-12T21:27:07.641Z,99865.44
2023-04-12T21:29:37.649Z,99857.34
2023-04-12T21:32:06.078Z,99847.16
2023-04-12T21:34:34.177Z,99845.41
2023-04-12T21:37:02.250Z,99847.72
2023-04-12T21:39:29.278Z,99850.63
2023-04-12T21:41:58.901Z,99852.88
2023-04-12T21:44:26.961Z,99873.63
2023-04-12T21:46:53.907Z,99880.06
2023-04-12T21:49:20.729Z,99894.88
2023-04-12T21:51:49.463Z,99899.25
2023-04-12T21:54:16.914Z,99887.22
2023-04-12T21:56:43.964Z,99894.75
2023-04-12T21:59:11.117Z,99891.50
2023-04-12T22:01:38.303Z,99889.94
2023-04-12T22:04:05.436Z,99896.72
2023-04-12T22:06:32.411Z,99902.06
2023-04-12T22:09:02.683Z,99899.56
2023-04-12T22:11:30.799Z,99898.84
2023-04-12T22:13:58.462Z,99889.38
2023-04-12T22:16:25.573Z,99891.91
2023-04-12T22:18:53.069Z,99889.03
2023-04-12T22:21:19.939Z,99899.63
2023-04-12T22:23:47.050Z,99900.53
2023-04-12T22:26:14.345Z,99912.81
2023-04-12T22:28:41.552Z,99908.47
2023-04-12T22:31:14.533Z,99898.66
2023-04-12T22:33:41.969Z,99899.59
2023-04-12T22:36:10.932Z,99896.63
2023-04-12T22:38:38.391Z,99896.22
2023-04-12T22:41:06.708Z,99881.00
2023-04-12T22:43:42.184Z,99895.78
2023-04-12T22:46:16.266Z,99882.44
2023-04-12T22:48:44.365Z,99885.88
2023-04-12T22:51:11.286Z,99892.09
2023-04-12T22:53:38.982Z,99892.88
2023-04-12T22:56:08.394Z,99881.75
2023-04-12T22:58:37.314Z,99885.81
2023-04-12T23:01:06.916Z,99889.25
2023-04-12T23:03:34.251Z,99888.25
2023-04-12T23:06:01.050Z,99875.91
2023-04-12T23:08:29.374Z,99878.47
2023-04-12T23:11:03.760Z,99876.09
2023-04-12T23:13:35.367Z,99872.75
2023-04-12T23:16:03.814Z,99862.97
2023-04-12T23:18:30.962Z,99864.84
2023-04-12T23:20:57.893Z,99869.13
2023-04-12T23:23:27.778Z,99859.06
2023-04-12T23:25:55.464Z,99870.47
2023-04-12T23:28:24.473Z,99859.06
2023-04-12T23:30:51.967Z,99860.41
2023-04-12T23:33:20.930Z,99864.19
2023-04-12T23:35:59.127Z,99868.59
2023-04-12T23:38:35.288Z,99868.59
2023-04-12T23:41:04.283Z,99871.09
2023-04-12T23:43:32.849Z,99872.63
2023-04-12T23:46:00.297Z,99876.00
2023-04-12T23:48:27.666Z,99881.41
2023-04-12T23:50:54.760Z,99883.63
2023-04-12T23:53:21.845Z,99884.88
2023-04-12T23:55:51.454Z,99887.19
2023-04-12T23:58:18.879Z,99887.78
